Time;durP1;ratioP1;P1;durP2;ratioP2;P2;SDS_P1;SDS_P2;PMS_P1;PMS_P2;Temp;Humidity;BMP_temperature;BMP_pressure;BME280_temperature;BME280_humidity;BME280_pressure;Samples;Min_cycle;Max_cycle;Signal;HPM_P1;HPM_P2
2023/09/24 00:00:48;;;;;;;1.50;1.23;;;;;;;;;;6154350;23;20015;-86
2023/09/24 00:03:14;;;;;;;1.67;1.25;;;;;;;;;;6154221;23;20016;-85
2023/09/24 00:05:41;;;;;;;2.58;1.30;;;;;;;;;;6154436;23;20083;-85
2023/09/24 00:08:08;;;;;;;3.53;1.38;;;;;;;;;;6153177;23;20513;-85
2023/09/24 00:10:34;;;;;;;1.77;0.98;;;;;;;;;;6154680;23;20020;-86
2023/09/24 00:13:00;;;;;;;2.30;1.05;;;;;;;;;;6154099;23;20044;-85
2023/09/24 00:15:27;;;;;;;1.70;1.08;;;;;;;;;;6154632;23;20382;-85
2023/09/24 00:17:53;;;;;;;2.15;1.60;;;;;;;;;;6180631;23;20166;-85
2023/09/24 00:20:19;;;;;;;2.17;1.45;;;;;;;;;;6179329;23;20017;-85
2023/09/24 00:22:47;;;;;;;3.88;1.33;;;;;;;;;;6180474;23;20017;-85
2023/09/24 00:25:14;;;;;;;1.63;1.20;;;;;;;;;;6179553;23;20021;-85
2023/09/24 00:27:40;;;;;;;4.78;1.48;;;;;;;;;;6154060;23;20013;-85
2023/09/24 00:30:06;;;;;;;1.80;1.27;;;;;;;;;;6180310;23;20036;-85
2023/09/24 00:32:32;;;;;;;1.90;1.42;;;;;;;;;;6153852;23;20016;-85
2023/09/24 00:34:58;;;;;;;1.80;1.30;;;;;;;;;;6179176;23;20450;-85
2023/09/24 00:37:24;;;;;;;2.63;1.50;;;;;;;;;;6180636;23;20013;-85
2023/09/24 00:39:50;;;;;;;2.40;1.52;;;;;;;;;;6153582;23;20055;-85
2023/09/24 00:42:16;;;;;;;1.55;1.27;;;;;;;;;;6180258;23;20515;-85
2023/09/24 00:44:42;;;;;;;3.25;1.50;;;;;;;;;;6181381;23;20009;-85
2023/09/24 00:47:09;;;;;;;2.13;1.35;;;;;;;;;;6179782;23;20085;-85
2023/09/24 00:49:35;;;;;;;1.40;1.25;;;;;;;;;;6153834;23;20347;-86
2023/09/24 00:52:01;;;;;;;3.10;1.65;;;;;;;;;;6180500;23;20013;-86
2023/09/24 00:54:27;;;;;;;1.48;1.30;;;;;;;;;;6180055;23;20497;-85
2023/09/24 00:56:58;;;;;;;1.85;1.40;;;;;;;;;;6180781;23;20088;-86
2023/09/24 00:59:24;;;;;;;2.30;1.55;;;;;;;;;;6179925;23;20364;-86
2023/09/24 01:01:50;;;;;;;2.42;1.35;;;;;;;;;;6180645;23;20017;-86
2023/09/24 01:04:17;;;;;;;2.03;1.20;;;;;;;;;;6179249;23;20017;-86
2023/09/24 01:06:44;;;;;;;3.38;1.52;;;;;;;;;;6155080;23;20044;-85
2023/09/24 01:09:12;;;;;;;4.15;1.33;;;;;;;;;;6180019;23;20048;-86
2023/09/24 01:11:39;;;;;;;2.03;1.80;;;;;;;;;;6180533;23;20013;-86
2023/09/24 01:14:05;;;;;;;1.73;1.50;;;;;;;;;;6153943;23;20028;-86
2023/09/24 01:16:32;;;;;;;2.38;1.50;;;;;;;;;;6154358;23;20087;-85
2023/09/24 01:18:58;;;;;;;1.95;1.27;;;;;;;;;;6179822;23;20079;-86
2023/09/24 01:21:28;;;;;;;2.20;1.52;;;;;;;;;;6153850;23;20017;-86
2023/09/24 01:23:55;;;;;;;2.88;1.83;;;;;;;;;;6179816;23;20072;-86
2023/09/24 01:26:24;;;;;;;3.90;1.85;;;;;;;;;;6179391;23;20021;-86
2023/09/24 01:28:51;;;;;;;2.97;1.80;;;;;;;;;;6180155;23;20017;-86
2023/09/24 01:31:18;;;;;;;1.88;1.52;;;;;;;;;;6179690;23;20088;-86
2023/09/24 01:33:44;;;;;;;1.98;1.70;;;;;;;;;;6153622;23;20017;-86
2023/09/24 01:36:10;;;;;;;4.20;2.17;;;;;;;;;;6154837;23;20017;-86
2023/09/24 01:38:40;;;;;;;2.42;1.58;;;;;;;;;;6131452;23;20127;-86
2023/09/24 01:41:10;;;;;;;2.53;2.00;;;;;;;;;;6182017;23;20016;-86
2023/09/24 01:43:36;;;;;;;3.28;1.73;;;;;;;;;;6183239;23;20017;-87
2023/09/24 01:46:05;;;;;;;2.05;1.75;;;;;;;;;;6181896;23;20021;-86
2023/09/24 01:48:32;;;;;;;1.98;1.67;;;;;;;;;;6182051;23;20013;-86
2023/09/24 01:50:59;;;;;;;2.80;2.05;;;;;;;;;;6182155;23;20013;-87
2023/09/24 01:53:25;;;;;;;3.25;2.20;;;;;;;;;;6156048;23;20019;-86
2023/09/24 01:55:52;;;;;;;2.70;2.15;;;;;;;;;;6182087;23;20056;-87
2023/09/24 01:58:18;;;;;;;3.70;2.53;;;;;;;;;;6155452;23;20316;-87
2023/09/24 02:00:44;;;;;;;2.50;2.30;;;;;;;;;;6183083;23;20063;-86
2023/09/24 02:03:11;;;;;;;3.20;1.90;;;;;;;;;;6181475;23;20446;-86
2023/09/24 02:05:42;;;;;;;2.90;2.10;;;;;;;;;;6156689;23;20076;-86
2023/09/24 02:08:12;;;;;;;3.20;2.35;;;;;;;;;;6155705;23;20233;-86
2023/09/24 02:10:40;;;;;;;2.58;2.15;;;;;;;;;;6157921;23;20020;-87
2023/09/24 02:13:07;;;;;;;4.47;2.55;;;;;;;;;;6158947;23;20040;-86
2023/09/24 02:15:33;;;;;;;3.17;2.28;;;;;;;;;;6158622;23;20017;-87
2023/09/24 02:18:00;;;;;;;2.58;2.08;;;;;;;;;;6158851;23;20051;-86
2023/09/24 02:20:31;;;;;;;3.65;2.45;;;;;;;;;;6156671;23;20013;-86
2023/09/24 02:22:59;;;;;;;2.78;2.15;;;;;;;;;;6131115;23;20044;-86
2023/09/24 02:25:29;;;;;;;2.85;2.13;;;;;;;;;;6155646;23;20092;-86
2023/09/24 02:27:55;;;;;;;5.05;2.00;;;;;;;;;;6179929;23;20013;-86
2023/09/24 02:30:22;;;;;;;7.38;1.88;;;;;;;;;;6180986;23;20382;-86
2023/09/24 02:32:49;;;;;;;3.83;1.90;;;;;;;;;;6182017;23;20485;-86
2023/09/24 02:35:15;;;;;;;4.10;1.88;;;;;;;;;;6181883;23;20583;-86
2023/09/24 02:37:45;;;;;;;5.28;2.28;;;;;;;;;;6130555;23;20055;-86
2023/09/24 02:40:16;;;;;;;4.38;1.90;;;;;;;;;;6130776;23;20045;-86
2023/09/24 02:42:46;;;;;;;1.92;1.63;;;;;;;;;;6131072;23;20013;-86
2023/09/24 02:45:12;;;;;;;6.30;1.92;;;;;;;;;;6154056;23;20372;-86
2023/09/24 02:47:38;;;;;;;2.75;1.90;;;;;;;;;;6181460;23;20403;-86
2023/09/24 02:50:14;;;;;;;3.47;1.52;;;;;;;;;;6182013;23;20013;-86
2023/09/24 02:52:41;;;;;;;2.03;1.70;;;;;;;;;;6155948;23;20039;-86
2023/09/24 02:55:08;;;;;;;4.72;1.90;;;;;;;;;;6154591;23;20013;-86
2023/09/24 02:57:35;;;;;;;2.35;1.80;;;;;;;;;;6180759;23;20184;-86
2023/09/24 03:00:00;;;;;;;2.63;1.92;;;;;;;;;;6180173;23;20020;-86
2023/09/24 03:02:29;;;;;;;3.53;2.05;;;;;;;;;;6181017;23;20009;-86
2023/09/24 03:04:56;;;;;;;2.50;1.88;;;;;;;;;;6154380;23;20017;-86
2023/09/24 03:07:22;;;;;;;2.35;1.70;;;;;;;;;;6155268;23;20013;-86
2023/09/24 03:09:49;;;;;;;2.25;1.92;;;;;;;;;;6156157;23;20019;-86
2023/09/24 03:12:15;;;;;;;3.00;2.05;;;;;;;;;;6154809;23;20025;-86
2023/09/24 03:14:41;;;;;;;2.28;1.95;;;;;;;;;;6181140;23;20330;-86
2023/09/24 03:17:07;;;;;;;2.45;2.25;;;;;;;;;;6180110;23;20019;-86
2023/09/24 03:19:33;;;;;;;2.78;1.98;;;;;;;;;;6179308;23;20017;-86
2023/09/24 03:21:59;;;;;;;4.43;2.47;;;;;;;;;;6180933;23;20025;-86
2023/09/24 03:24:25;;;;;;;5.88;2.97;;;;;;;;;;6181369;23;20053;-86
2023/09/24 03:26:51;;;;;;;3.30;1.98;;;;;;;;;;6181212;23;20055;-86
2023/09/24 03:29:19;;;;;;;3.47;2.42;;;;;;;;;;6179412;23;20033;-86
2023/09/24 03:31:45;;;;;;;2.55;2.13;;;;;;;;;;6155008;23;20088;-86
2023/09/24 03:34:11;;;;;;;2.90;2.05;;;;;;;;;;6152990;23;20083;-86
2023/09/24 03:36:37;;;;;;;2.95;1.90;;;;;;;;;;6155266;23;20072;-85
2023/09/24 03:39:04;;;;;;;2.55;2.20;;;;;;;;;;6154665;23;20021;-85
2023/09/24 03:41:30;;;;;;;2.83;1.85;;;;;;;;;;6130372;23;20021;-86
2023/09/24 03:43:56;;;;;;;3.38;2.33;;;;;;;;;;6180431;23;20085;-86
2023/09/24 03:46:22;;;;;;;3.45;1.85;;;;;;;;;;6180286;23;20025;-87
2023/09/24 03:48:49;;;;;;;7.03;2.72;;;;;;;;;;6153866;23;20017;-85
2023/09/24 03:51:15;;;;;;;3.72;2.95;;;;;;;;;;6180741;23;20013;-86
2023/09/24 03:53:41;;;;;;;3.03;2.15;;;;;;;;;;6155267;23;20096;-86
2023/09/24 03:56:07;;;;;;;3.42;2.00;;;;;;;;;;6153787;23;20526;-86
2023/09/24 03:58:33;;;;;;;3.15;2.28;;;;;;;;;;6180698;23;20439;-86
2023/09/24 04:01:07;;;;;;;6.53;2.38;;;;;;;;;;6154429;23;20473;-86
2023/09/24 04:03:33;;;;;;;2.83;2.05;;;;;;;;;;6179964;23;20347;-86
2023/09/24 04:05:59;;;;;;;3.35;2.00;;;;;;;;;;6181189;23;20074;-85
2023/09/24 04:08:25;;;;;;;4.47;2.22;;;;;;;;;;6154777;23;20039;-86
2023/09/24 04:10:51;;;;;;;2.78;2.15;;;;;;;;;;6180792;23;20435;-86
2023/09/24 04:13:17;;;;;;;2.97;1.92;;;;;;;;;;6152659;23;20020;-85
2023/09/24 04:15:43;;;;;;;6.10;2.25;;;;;;;;;;6154855;23;20013;-85
2023/09/24 04:18:09;;;;;;;3.25;2.30;;;;;;;;;;6153459;23;20025;-85
2023/09/24 04:20:35;;;;;;;4.10;2.28;;;;;;;;;;6181226;23;20013;-85
2023/09/24 04:23:01;;;;;;;4.72;2.75;;;;;;;;;;6179785;23;20394;-86
2023/09/24 04:25:28;;;;;;;3.33;2.33;;;;;;;;;;6181203;23;20177;-85
2023/09/24 04:27:54;;;;;;;5.80;2.47;;;;;;;;;;6179615;23;20501;-85
2023/09/24 04:30:22;;;;;;;3.92;2.20;;;;;;;;;;6180827;23;20063;-85
2023/09/24 04:32:53;;;;;;;3.45;2.20;;;;;;;;;;6153728;23;20021;-86
2023/09/24 04:35:19;;;;;;;5.05;2.63;;;;;;;;;;6180291;23;20021;-85
2023/09/24 04:37:46;;;;;;;3.25;2.40;;;;;;;;;;6154684;23;20021;-86
2023/09/24 04:40:14;;;;;;;4.32;2.60;;;;;;;;;;6180675;23;20009;-86
2023/09/24 04:42:44;;;;;;;4.65;2.55;;;;;;;;;;6153926;23;20080;-85
2023/09/24 04:45:11;;;;;;;3.53;2.35;;;;;;;;;;6153770;23;20105;-85
2023/09/24 04:47:37;;;;;;;3.85;2.47;;;;;;;;;;6180953;23;20343;-85
2023/09/24 04:50:03;;;;;;;4.57;2.78;;;;;;;;;;6180298;23;20473;-86
2023/09/24 04:52:29;;;;;;;4.20;2.60;;;;;;;;;;6180515;23;20049;-85
2023/09/24 04:54:55;;;;;;;4.25;3.17;;;;;;;;;;6180348;23;20052;-85
2023/09/24 04:57:21;;;;;;;4.88;2.78;;;;;;;;;;6179876;23;20049;-85
2023/09/24 04:59:47;;;;;;;4.80;3.13;;;;;;;;;;6154662;23;20055;-85
2023/09/24 05:02:13;;;;;;;5.80;2.75;;;;;;;;;;6179362;23;20410;-85
2023/09/24 05:04:39;;;;;;;4.25;2.80;;;;;;;;;;6180950;23;20071;-85
2023/09/24 05:07:05;;;;;;;4.95;2.65;;;;;;;;;;6179820;23;20374;-85
2023/09/24 05:09:32;;;;;;;4.90;2.63;;;;;;;;;;6180590;23;20323;-85
2023/09/24 05:11:58;;;;;;;5.13;2.90;;;;;;;;;;6182056;23;20009;-85
2023/09/24 05:14:23;;;;;;;4.85;2.38;;;;;;;;;;6182046;23;20331;-85
2023/09/24 05:16:51;;;;;;;5.55;3.30;;;;;;;;;;6182570;23;20021;-85
2023/09/24 05:19:17;;;;;;;5.10;2.97;;;;;;;;;;6181760;23;20024;-85
2023/09/24 05:21:44;;;;;;;4.70;2.88;;;;;;;;;;6183147;23;20016;-85
2023/09/24 05:24:10;;;;;;;5.82;2.88;;;;;;;;;;6180442;23;20072;-86
2023/09/24 05:26:37;;;;;;;4.72;2.95;;;;;;;;;;6183025;23;20044;-86
2023/09/24 05:29:03;;;;;;;4.53;2.67;;;;;;;;;;6131662;23;20028;-86
2023/09/24 05:31:29;;;;;;;6.45;2.90;;;;;;;;;;6182179;23;20351;-85
2023/09/24 05:33:56;;;;;;;4.43;2.92;;;;;;;;;;6182123;23;20013;-85
2023/09/24 05:36:23;;;;;;;4.75;2.45;;;;;;;;;;6181652;23;20017;-86
2023/09/24 05:38:49;;;;;;;3.78;2.70;;;;;;;;;;6180883;23;20013;-86
2023/09/24 05:41:16;;;;;;;6.13;3.33;;;;;;;;;;6155612;23;20451;-85
2023/09/24 05:43:44;;;;;;;7.97;3.00;;;;;;;;;;6182256;23;20372;-86
2023/09/24 05:46:11;;;;;;;3.78;2.58;;;;;;;;;;6154861;23;20397;-86
2023/09/24 05:48:37;;;;;;;5.75;2.90;;;;;;;;;;6155732;23;20043;-84
2023/09/24 05:51:04;;;;;;;5.40;2.97;;;;;;;;;;6182330;23;20060;-85
2023/09/24 05:53:30;;;;;;;4.97;3.25;;;;;;;;;;6180016;23;20064;-87
2023/09/24 05:55:56;;;;;;;6.38;3.20;;;;;;;;;;6180656;23;20075;-85
2023/09/24 05:58:22;;;;;;;7.20;3.08;;;;;;;;;;6182455;23;20013;-89
2023/09/24 06:00:50;;;;;;;5.22;3.17;;;;;;;;;;6157310;23;20077;-85
2023/09/24 06:03:16;;;;;;;6.55;3.13;;;;;;;;;;6181688;23;20040;-90
2023/09/24 06:05:42;;;;;;;4.55;3.30;;;;;;;;;;6183390;23;20092;-86
2023/09/24 06:08:08;;;;;;;8.50;3.97;;;;;;;;;;6155529;23;20017;-84
2023/09/24 06:10:37;;;;;;;9.25;3.63;;;;;;;;;;6183034;23;20304;-85
2023/09/24 06:13:03;;;;;;;6.40;3.75;;;;;;;;;;6180389;23;20017;-85
2023/09/24 06:15:29;;;;;;;6.97;3.08;;;;;;;;;;6181298;23;20473;-86
2023/09/24 06:17:55;;;;;;;6.43;3.70;;;;;;;;;;6182235;23;20020;-84
2023/09/24 06:20:22;;;;;;;6.10;3.90;;;;;;;;;;6182204;23;20017;-85
2023/09/24 06:22:53;;;;;;;7.78;4.13;;;;;;;;;;6155242;23;20013;-83
2023/09/24 06:25:19;;;;;;;7.28;3.60;;;;;;;;;;6182485;23;20079;-84
2023/09/24 06:27:45;;;;;;;12.95;4.05;;;;;;;;;;6182463;23;20013;-85
2023/09/24 06:30:11;;;;;;;5.10;3.97;;;;;;;;;;6182552;23;20009;-87
2023/09/24 06:32:38;;;;;;;7.20;3.67;;;;;;;;;;6157244;23;20067;-85
2023/09/24 06:35:04;;;;;;;10.02;4.20;;;;;;;;;;6157447;23;20091;-85
2023/09/24 06:37:30;;;;;;;6.30;4.18;;;;;;;;;;6157615;23;20052;-83
2023/09/24 06:39:57;;;;;;;6.00;4.07;;;;;;;;;;6175012;23;20032;-84
2023/09/24 06:42:23;;;;;;;8.30;4.32;;;;;;;;;;6163522;23;20013;-84
2023/09/24 06:44:49;;;;;;;6.95;3.72;;;;;;;;;;6158847;23;20019;-85
2023/09/24 06:47:15;;;;;;;7.00;3.95;;;;;;;;;;6157320;23;20021;-86
2023/09/24 06:49:42;;;;;;;7.60;3.90;;;;;;;;;;6183241;23;20020;-85
2023/09/24 06:52:08;;;;;;;7.85;4.57;;;;;;;;;;6130290;23;20020;-85
2023/09/24 06:54:34;;;;;;;6.63;4.03;;;;;;;;;;6182453;23;20088;-85
2023/09/24 06:57:00;;;;;;;7.18;3.97;;;;;;;;;;6181867;23;20087;-86
2023/09/24 06:59:26;;;;;;;7.00;4.38;;;;;;;;;;6157769;23;20017;-85
2023/09/24 07:01:53;;;;;;;5.78;3.92;;;;;;;;;;6156006;23;20092;-86
2023/09/24 07:04:19;;;;;;;10.13;4.10;;;;;;;;;;6155480;23;20049;-85
2023/09/24 07:06:46;;;;;;;7.30;4.22;;;;;;;;;;6182872;23;20016;-89
2023/09/24 07:09:12;;;;;;;6.63;4.07;;;;;;;;;;6181078;23;20016;-86
2023/09/24 07:11:39;;;;;;;7.20;4.05;;;;;;;;;;6184201;23;20021;-89
2023/09/24 07:14:05;;;;;;;10.82;4.88;;;;;;;;;;6181524;23;20013;-88
2023/09/24 07:16:32;;;;;;;8.93;4.55;;;;;;;;;;6177598;23;20021;-85
2023/09/24 07:18:58;;;;;;;9.10;4.43;;;;;;;;;;6179775;23;20017;-87
2023/09/24 07:21:28;;;;;;;7.32;4.25;;;;;;;;;;6180742;23;20446;-87
2023/09/24 07:23:55;;;;;;;7.78;4.32;;;;;;;;;;6153613;23;20025;-88
2023/09/24 07:26:24;;;;;;;7.32;4.03;;;;;;;;;;6155618;23;20020;-85
2023/09/24 07:28:51;;;;;;;7.80;4.13;;;;;;;;;;6156810;23;20407;-91
2023/09/24 07:31:24;;;;;;;9.57;4.93;;;;;;;;;;6187973;23;20013;-92
2023/09/24 07:33:53;;;;;;;6.22;3.90;;;;;;;;;;6167927;23;20020;-92
2023/09/24 07:36:20;;;;;;;5.32;3.83;;;;;;;;;;6149900;23;20056;-94
2023/09/24 07:38:46;;;;;;;5.45;3.70;;;;;;;;;;6206959;23;20151;-96
